createdAt,value
2023-09-13T00:02:10.404Z,19.40
2023-09-13T00:12:14.452Z,22.20
2023-09-13T00:22:18.477Z,22.40
2023-09-13T00:32:23.357Z,22.20
2023-09-13T00:42:29.518Z,22.90
2023-09-13T00:52:34.718Z,23.10
2023-09-13T01:02:42.896Z,23.00
2023-09-13T01:12:47.815Z,23.10
2023-09-13T01:23:20.046Z,22.80
2023-09-13T01:33:24.927Z,22.40
2023-09-13T01:43:29.616Z,23.10
2023-09-13T01:53:33.559Z,22.50
2023-09-13T02:03:37.532Z,22.60
2023-09-13T02:13:41.222Z,22.70
2023-09-13T02:23:45.322Z,22.90
2023-09-13T02:33:50.894Z,23.10
2023-09-13T02:43:54.742Z,22.90
2023-09-13T02:53:58.491Z,23.10
2023-09-13T03:04:03.041Z,24.40
2023-09-13T03:14:07.832Z,24.30
2023-09-13T03:24:12.821Z,23.50
2023-09-13T03:34:17.876Z,25.50
2023-09-13T03:44:21.958Z,23.50
2023-09-13T03:54:26.542Z,22.90
2023-09-13T04:04:31.488Z,23.20
2023-09-13T04:14:35.292Z,23.50
2023-09-13T04:24:39.052Z,23.70
2023-09-13T04:34:42.998Z,23.80
2023-09-13T04:44:47.207Z,24.70
2023-09-13T04:54:52.026Z,24.40
2023-09-13T05:04:55.897Z,25.70
2023-09-13T05:15:00.018Z,24.50
2023-09-13T05:25:05.211Z,24.80
2023-09-13T05:35:12.067Z,23.50
2023-09-13T05:45:15.903Z,23.50
2023-09-13T05:55:19.642Z,22.90
2023-09-13T06:05:23.396Z,24.80
2023-09-13T06:15:27.211Z,22.50
2023-09-13T06:25:31.254Z,22.10
2023-09-13T06:35:38.927Z,21.80
2023-09-13T06:46:00.484Z,21.30
2023-09-13T06:56:09.428Z,20.80
2023-09-13T07:06:14.242Z,21.50
2023-09-13T07:16:18.478Z,20.50
2023-09-13T07:26:23.188Z,19.60
2023-09-13T07:36:29.328Z,19.60
2023-09-13T07:46:33.145Z,19.70
2023-09-13T07:56:38.832Z,19.70
2023-09-13T08:06:42.911Z,21.40
2023-09-13T08:16:47.234Z,21.20
2023-09-13T08:26:51.485Z,20.20
2023-09-13T08:36:57.478Z,20.80
2023-09-13T08:47:03.983Z,19.10
2023-09-13T08:57:07.833Z,18.20
2023-09-13T09:07:12.438Z,19.30
2023-09-13T09:17:18.647Z,17.80
2023-09-13T09:27:22.759Z,18.50
2023-09-13T09:37:31.437Z,17.50
2023-09-13T09:47:40.089Z,18.10
2023-09-13T09:57:48.370Z,16.30
2023-09-13T10:07:56.115Z,16.30
2023-09-13T10:18:04.580Z,14.40
2023-09-13T10:28:10.934Z,14.30
2023-09-13T10:38:22.053Z,13.70
2023-09-13T10:48:27.443Z,13.90
2023-09-13T10:58:31.798Z,12.40
2023-09-13T11:08:36.213Z,11.80
2023-09-13T11:18:50.637Z,12.50
2023-09-13T11:28:55.843Z,12.40
2023-09-13T11:39:07.173Z,12.80
2023-09-13T11:49:35.112Z,14.60
2023-09-13T11:59:46.910Z,13.90
2023-09-13T12:10:00.302Z,13.40
2023-09-13T12:20:07.585Z,13.10
2023-09-13T12:30:20.044Z,12.80
2023-09-13T12:40:28.135Z,12.50
2023-09-13T12:50:35.143Z,14.50
2023-09-13T13:00:50.928Z,13.30
2023-09-13T13:10:57.540Z,12.60
2023-09-13T13:21:08.730Z,12.30
2023-09-13T13:31:17.075Z,12.40
2023-09-13T13:41:22.251Z,12.90
2023-09-13T13:51:28.120Z,13.20
2023-09-13T14:01:33.756Z,13.70
2023-09-13T14:11:41.012Z,13.70
2023-09-13T14:21:55.422Z,13.20
2023-09-13T14:32:03.276Z,14.20
2023-09-13T14:42:07.478Z,15.10
2023-09-13T15:18:05.874Z,15.50
2023-09-13T15:28:09.766Z,13.60
2023-09-13T15:38:13.589Z,14.20
2023-09-13T15:48:19.365Z,15.50
2023-09-13T15:58:23.200Z,14.50
2023-09-13T16:08:26.919Z,16.00
2023-09-13T16:18:32.931Z,15.20
2023-09-13T16:28:36.686Z,15.90
2023-09-13T16:38:40.580Z,14.80
2023-09-13T16:48:44.458Z,15.10
2023-09-13T16:58:48.212Z,15.50
2023-09-13T17:08:52.337Z,15.80
2023-09-13T17:18:56.156Z,17.20
2023-09-13T17:29:05.721Z,18.20
2023-09-13T17:39:13.300Z,20.40
2023-09-13T17:49:20.774Z,20.30
2023-09-13T17:59:25.119Z,17.60
2023-09-13T18:09:29.010Z,18.90
2023-09-13T18:19:32.868Z,15.60
2023-09-13T18:29:38.468Z,15.10
2023-09-13T18:39:43.326Z,14.30
2023-09-13T18:49:47.213Z,16.30
2023-09-13T18:59:51.414Z,16.50
2023-09-13T19:09:55.706Z,14.50
2023-09-13T19:19:59.477Z,12.80
2023-09-13T19:30:03.402Z,10.30
2023-09-13T19:40:09.120Z,8.70
2023-09-13T19:50:13.200Z,8.90
2023-09-13T20:00:17.435Z,9.10
2023-09-13T20:10:22.555Z,8.90
2023-09-13T20:20:30.686Z,9.40
2023-09-13T20:30:35.413Z,10.80
2023-09-13T20:40:39.204Z,10.00
2023-09-13T20:50:43.397Z,9.80
2023-09-13T21:00:47.781Z,10.80
2023-09-13T21:10:53.604Z,10.90
2023-09-13T21:20:59.570Z,10.90
2023-09-13T21:31:05.023Z,11.10
2023-09-13T21:41:10.184Z,11.30
2023-09-13T21:51:14.733Z,11.80
2023-09-13T22:01:19.070Z,11.70
2023-09-13T22:11:26.799Z,11.40
2023-09-13T22:21:30.602Z,11.30
2023-09-13T22:31:34.505Z,11.20
2023-09-13T22:41:45.248Z,11.80
2023-09-13T22:51:50.541Z,12.00
2023-09-13T23:01:54.594Z,11.90
2023-09-13T23:11:58.400Z,11.70
2023-09-13T23:22:04.003Z,11.70
2023-09-13T23:32:07.822Z,11.50
2023-09-13T23:42:12.851Z,11.50
2023-09-13T23:52:16.675Z,10.60
